createdAt,value
2022-11-14T00:01:00.128Z,0.40
2022-11-14T00:03:26.869Z,0.40
2022-11-14T00:05:53.550Z,0.50
2022-11-14T00:08:23.766Z,0.50
2022-11-14T00:10:51.824Z,0.60
2022-11-14T00:13:20.354Z,0.60
2022-11-14T00:15:54.318Z,0.60
2022-11-14T00:18:21.997Z,0.60
2022-11-14T00:20:50.008Z,0.60
2022-11-14T00:23:16.915Z,0.60
2022-11-14T00:25:45.464Z,0.70
2022-11-14T00:28:12.275Z,0.70
2022-11-14T00:30:39.006Z,0.70
2022-11-14T00:33:05.713Z,0.70
2022-11-14T00:35:32.400Z,0.70
2022-11-14T00:37:59.089Z,0.70
2022-11-14T00:40:25.822Z,0.70
2022-11-14T00:42:52.561Z,0.70
2022-11-14T00:45:19.256Z,0.60
2022-11-14T00:47:45.979Z,0.60
2022-11-14T00:50:12.728Z,0.70
2022-11-14T00:52:39.403Z,0.70
2022-11-14T00:55:06.980Z,0.70
2022-11-14T00:57:33.734Z,0.70
2022-11-14T01:00:00.474Z,0.70
2022-11-14T01:02:27.222Z,0.70
2022-11-14T01:04:53.961Z,0.70
2022-11-14T01:07:20.695Z,0.60
2022-11-14T01:09:47.402Z,0.60
2022-11-14T01:12:14.127Z,0.60
2022-11-14T01:14:41.150Z,0.60
2022-11-14T01:17:08.102Z,0.60
2022-11-14T01:19:34.936Z,0.50
2022-11-14T01:22:06.264Z,0.50
2022-11-14T01:24:33.964Z,0.50
2022-11-14T01:27:01.569Z,0.50
2022-11-14T01:29:28.657Z,0.40
2022-11-14T01:31:56.134Z,0.40
2022-11-14T01:34:23.387Z,0.50
2022-11-14T01:36:50.243Z,0.40
2022-11-14T01:39:17.029Z,0.40
2022-11-14T01:41:43.787Z,0.40
2022-11-14T01:44:18.408Z,0.40
2022-11-14T01:46:54.448Z,0.40
2022-11-14T01:49:25.971Z,0.40
2022-11-14T01:52:03.549Z,0.30
2022-11-14T01:54:38.054Z,0.30
2022-11-14T01:57:07.898Z,0.20
2022-11-14T01:59:44.888Z,0.10
2022-11-14T02:02:20.843Z,0.00
2022-11-14T02:04:57.109Z,0.00
2022-11-14T02:07:27.541Z,0.00
2022-11-14T02:09:54.853Z,-0.10
2022-11-14T02:12:23.056Z,-0.10
2022-11-14T03:07:29.904Z,-0.40
2022-11-14T03:09:56.589Z,-0.40
2022-11-14T03:12:23.320Z,-0.40
2022-11-14T03:14:49.968Z,-0.40
2022-11-14T03:17:16.642Z,-0.50
2022-11-14T03:19:43.310Z,-0.50
2022-11-14T03:22:09.950Z,-0.60
2022-11-14T03:24:36.587Z,-0.50
2022-11-14T03:27:03.239Z,-0.60
2022-11-14T03:29:29.941Z,-0.60
2022-11-14T03:31:56.601Z,-0.60
2022-11-14T03:34:23.264Z,-0.60
2022-11-14T03:36:49.905Z,-0.70
2022-11-14T03:39:16.817Z,-0.70
2022-11-14T03:41:43.522Z,-0.70
2022-11-14T03:44:10.299Z,-0.70
2022-11-14T03:46:36.946Z,-0.70
2022-11-14T03:49:04.120Z,-0.70
2022-11-14T03:51:30.759Z,-0.70
2022-11-14T03:53:57.460Z,-0.70
2022-11-14T03:56:24.106Z,-0.70
2022-11-14T03:58:50.771Z,-0.70
2022-11-14T04:01:17.541Z,-0.70
2022-11-14T04:03:44.421Z,-0.70
2022-11-14T04:06:11.108Z,-0.70
2022-11-14T04:08:40.450Z,-0.70
2022-11-14T04:11:07.733Z,-0.70
2022-11-14T04:13:34.406Z,-0.60
2022-11-14T04:16:01.078Z,-0.60
2022-11-14T04:18:28.636Z,-0.70
2022-11-14T04:20:55.671Z,-0.70
2022-11-14T04:23:22.440Z,-0.80
2022-11-14T04:25:49.330Z,-0.50
2022-11-14T04:28:16.009Z,-0.80
2022-11-14T04:30:42.802Z,-0.80
2022-11-14T04:33:09.462Z,-0.80
2022-11-14T04:35:36.098Z,-0.80
2022-11-14T04:38:03.737Z,-0.90
2022-11-14T04:40:30.478Z,-0.90
2022-11-14T04:42:57.379Z,-0.90
2022-11-14T04:45:24.083Z,-0.90
2022-11-14T04:47:50.801Z,-0.90
2022-11-14T04:50:17.582Z,-1.00
2022-11-14T04:52:44.387Z,-1.00
2022-11-14T04:55:11.073Z,-1.00
2022-11-14T04:57:37.731Z,-1.00
2022-11-14T05:00:05.132Z,-1.00
2022-11-14T05:02:32.896Z,-1.00
2022-11-14T05:04:59.621Z,-1.00
2022-11-14T05:07:26.514Z,-1.10
2022-11-14T05:09:53.238Z,-1.10
2022-11-14T05:12:20.051Z,-1.10
2022-11-14T05:14:46.743Z,-1.10
2022-11-14T05:17:13.465Z,-1.10
2022-11-14T05:19:40.174Z,-1.10
2022-11-14T05:22:06.856Z,-1.10
2022-11-14T05:24:33.557Z,-1.10
2022-11-14T05:27:00.219Z,-1.10
2022-11-14T05:29:26.947Z,-1.10
2022-11-14T05:31:53.675Z,-1.10
2022-11-14T05:34:20.335Z,-1.20
2022-11-14T05:36:47.022Z,-1.20
2022-11-14T05:39:13.663Z,-1.20
2022-11-14T05:41:40.327Z,-1.30
2022-11-14T05:44:07.571Z,-1.30
2022-11-14T05:46:34.253Z,-1.30
2022-11-14T05:49:00.993Z,-1.30
2022-11-14T05:51:27.722Z,-1.20
2022-11-14T05:53:55.439Z,-1.30
2022-11-14T05:56:22.091Z,-1.30
2022-11-14T05:58:48.732Z,-1.30
2022-11-14T06:01:17.939Z,-1.30
2022-11-14T06:03:46.957Z,-1.30
2022-11-14T06:06:17.394Z,-1.30
2022-11-14T06:08:44.561Z,-1.30
2022-11-14T06:11:14.730Z,-1.30
2022-11-14T06:13:42.599Z,-1.30
2022-11-14T06:16:12.119Z,-1.20
2022-11-14T06:18:39.563Z,-1.30
2022-11-14T06:21:13.948Z,-1.20
2022-11-14T06:23:41.177Z,-1.20
2022-11-14T06:26:23.350Z,-1.20
2022-11-14T06:28:51.298Z,-1.20
2022-11-14T06:31:18.777Z,-1.20
2022-11-14T06:33:45.992Z,-1.20
2022-11-14T06:36:13.224Z,-1.10
2022-11-14T06:38:41.795Z,-1.10
2022-11-14T06:41:12.898Z,-1.00
2022-11-14T06:43:42.657Z,-0.90
2022-11-14T06:46:12.005Z,-0.90
2022-11-14T06:48:39.150Z,-0.90
2022-11-14T06:51:06.974Z,-0.80
2022-11-14T06:53:35.855Z,-0.70
2022-11-14T06:56:09.919Z,-0.70
2022-11-14T06:58:39.534Z,-0.60
2022-11-14T07:01:21.019Z,-0.40
2022-11-14T07:03:48.528Z,-0.30
2022-11-14T07:06:17.688Z,0.00
2022-11-14T07:08:44.603Z,0.50
2022-11-14T07:11:22.755Z,0.90
2022-11-14T07:13:54.827Z,1.20
2022-11-14T07:16:25.017Z,1.50
2022-11-14T07:18:51.781Z,1.70
2022-11-14T07:21:18.394Z,1.90
2022-11-14T07:23:45.034Z,2.10
2022-11-14T07:26:12.009Z,2.30
2022-11-14T07:28:42.147Z,2.60
2022-11-14T07:31:14.159Z,3.00
2022-11-14T07:33:42.378Z,3.50
2022-11-14T07:36:10.226Z,4.10
2022-11-14T07:38:38.395Z,4.90
2022-11-14T07:41:08.218Z,5.80
2022-11-14T07:43:34.957Z,6.40
2022-11-14T07:46:08.534Z,7.40
2022-11-14T07:48:35.264Z,8.20
2022-11-14T07:51:04.272Z,8.80
2022-11-14T07:53:31.763Z,9.50
2022-11-14T07:56:03.348Z,10.20
2022-11-14T07:58:30.344Z,11.00
2022-11-14T08:01:02.192Z,12.30
2022-11-14T08:03:29.347Z,13.20
2022-11-14T08:06:11.457Z,14.00
2022-11-14T08:08:38.277Z,14.50
2022-11-14T08:11:05.363Z,15.40
2022-11-14T08:13:33.585Z,15.40
2022-11-14T08:16:10.767Z,15.60
2022-11-14T08:21:06.719Z,16.80
2022-11-14T08:23:33.524Z,17.10
2022-11-14T08:26:00.332Z,17.70
2022-11-14T08:28:27.380Z,18.60
2022-11-14T08:31:00.137Z,20.10
2022-11-14T08:33:26.831Z,21.00
2022-11-14T08:35:53.453Z,20.90
2022-11-14T08:38:20.093Z,20.40
2022-11-14T08:40:46.813Z,20.50
2022-11-14T08:43:13.549Z,20.80
2022-11-14T08:45:40.220Z,21.30
2022-11-14T08:48:06.918Z,21.80
2022-11-14T08:50:33.575Z,21.70
2022-11-14T08:53:00.305Z,22.10
2022-11-14T08:55:27.240Z,23.00
2022-11-14T08:57:54.688Z,22.80
2022-11-14T09:00:21.884Z,22.70
2022-11-14T09:02:48.596Z,22.70
2022-11-14T09:05:15.454Z,22.50
2022-11-14T09:07:42.170Z,22.40
2022-11-14T09:10:09.829Z,23.20
2022-11-14T09:12:36.519Z,23.70
2022-11-14T09:15:03.377Z,23.60
2022-11-14T09:17:30.082Z,24.50
2022-11-14T09:19:57.010Z,24.00
2022-11-14T09:22:23.680Z,24.40
2022-11-14T09:24:52.013Z,24.20
2022-11-14T09:27:18.839Z,24.00
2022-11-14T09:29:45.693Z,23.40
2022-11-14T09:32:12.435Z,23.40
2022-11-14T09:34:43.012Z,23.40
2022-11-14T09:37:10.026Z,23.30
2022-11-14T09:39:40.518Z,23.30
2022-11-14T09:42:39.366Z,22.70
2022-11-14T09:45:11.905Z,21.50
2022-11-14T09:47:52.007Z,21.00
2022-11-14T09:50:32.905Z,20.90
2022-11-14T09:53:10.542Z,21.30
2022-11-14T09:55:37.630Z,21.30
2022-11-14T09:58:05.147Z,21.60
2022-11-14T10:01:06.393Z,22.10
2022-11-14T10:03:59.669Z,22.80
2022-11-14T10:06:42.825Z,22.80
2022-11-14T10:09:28.821Z,23.60
2022-11-14T10:12:09.250Z,23.10
2022-11-14T10:15:09.003Z,21.40
2022-11-14T10:18:02.765Z,21.00
2022-11-14T10:20:39.319Z,20.60
2022-11-14T10:23:16.863Z,20.60
2022-11-14T10:26:08.331Z,20.30
2022-11-14T10:28:49.440Z,19.80
2022-11-14T10:31:34.637Z,19.00
2022-11-14T10:34:15.234Z,18.90
2022-11-14T10:37:06.673Z,18.90
2022-11-14T10:39:52.009Z,18.60
2022-11-14T10:42:40.728Z,18.40
2022-11-14T10:45:29.338Z,18.00
2022-11-14T10:48:00.058Z,17.90
2022-11-14T10:50:47.573Z,17.50
2022-11-14T10:53:25.274Z,17.50
2022-11-14T10:56:09.719Z,17.30
2022-11-14T10:58:47.835Z,17.10
2022-11-14T11:01:34.213Z,17.00
2022-11-14T11:04:14.473Z,16.50
2022-11-14T11:06:41.324Z,16.50
2022-11-14T11:09:31.935Z,16.50
2022-11-14T11:12:01.797Z,16.60
2022-11-14T11:14:29.429Z,17.00
2022-11-14T11:17:11.511Z,17.20
2022-11-14T11:19:42.597Z,17.20
2022-11-14T11:22:35.775Z,17.20
2022-11-14T11:25:04.758Z,17.10
2022-11-14T11:27:31.490Z,17.10
2022-11-14T11:30:19.882Z,16.80
2022-11-14T11:32:46.538Z,17.10
2022-11-14T11:35:16.051Z,17.00
2022-11-14T11:37:54.882Z,17.30
2022-11-14T11:40:25.460Z,17.30
2022-11-14T11:45:50.126Z,17.00
2022-11-14T11:48:19.947Z,16.70
2022-11-14T11:50:47.540Z,16.60
2022-11-14T11:53:34.219Z,16.90
2022-11-14T11:56:16.398Z,16.90
2022-11-14T11:58:49.657Z,17.20
2022-11-14T12:01:17.017Z,17.10
2022-11-14T12:03:52.638Z,17.20
2022-11-14T12:06:24.875Z,17.00
2022-11-14T12:09:19.212Z,17.20
2022-11-14T12:11:53.160Z,17.50
2022-11-14T12:14:26.254Z,17.50
2022-11-14T12:17:05.618Z,17.40
2022-11-14T12:19:53.947Z,17.40
2022-11-14T12:23:10.870Z,16.90
2022-11-14T12:26:00.395Z,16.40
2022-11-14T12:28:48.103Z,15.80
2022-11-14T12:31:19.503Z,15.30
2022-11-14T12:33:55.312Z,15.00
2022-11-14T12:36:32.148Z,14.60
2022-11-14T12:39:00.950Z,14.40
2022-11-14T12:41:34.396Z,14.20
2022-11-14T12:44:37.299Z,14.00
2022-11-14T12:47:06.807Z,13.70
2022-11-14T12:49:52.804Z,13.50
2022-11-14T12:52:42.407Z,13.30
2022-11-14T12:55:24.370Z,13.30
2022-11-14T12:58:16.276Z,13.30
2022-11-14T13:00:45.652Z,13.30
2022-11-14T13:03:24.340Z,13.20
2022-11-14T13:05:56.013Z,13.10
2022-11-14T13:08:49.312Z,13.00
2022-11-14T13:11:52.491Z,13.10
2022-11-14T13:14:38.984Z,13.10
2022-11-14T13:17:36.325Z,13.20
2022-11-14T13:20:50.066Z,13.00
2022-11-14T13:23:42.247Z,13.10
2022-11-14T13:26:12.102Z,12.90
2022-11-14T13:28:38.752Z,12.90
2022-11-14T13:31:17.507Z,12.80
2022-11-14T13:33:59.926Z,12.70
2022-11-14T13:37:04.534Z,12.70
2022-11-14T13:39:37.011Z,12.60
2022-11-14T13:42:28.749Z,12.60
2022-11-14T13:45:27.973Z,12.60
2022-11-14T13:48:31.418Z,12.50
2022-11-14T13:51:28.527Z,12.50
2022-11-14T13:53:50.777Z,12.50
2022-11-14T13:56:55.907Z,12.50
2022-11-14T13:59:46.621Z,12.40
2022-11-14T14:02:28.402Z,12.30
2022-11-14T14:05:16.623Z,12.30
2022-11-14T14:08:10.628Z,12.20
2022-11-14T14:11:01.937Z,12.20
2022-11-14T14:13:58.391Z,12.30
2022-11-14T14:16:46.795Z,12.30
2022-11-14T14:19:26.149Z,12.40
2022-11-14T14:22:05.081Z,12.40
2022-11-14T14:25:02.741Z,12.40
2022-11-14T14:28:05.085Z,12.30
2022-11-14T14:30:32.604Z,12.30
2022-11-14T14:33:08.187Z,12.20
2022-11-14T14:35:40.605Z,12.30
2022-11-14T14:38:12.704Z,12.30
2022-11-14T14:40:42.023Z,12.30
2022-11-14T14:43:23.758Z,12.20
2022-11-14T14:45:53.284Z,12.20
2022-11-14T14:48:26.764Z,12.00
2022-11-14T14:50:58.703Z,11.90
2022-11-14T14:53:35.544Z,11.90
2022-11-14T14:56:05.747Z,11.80
2022-11-14T14:58:34.699Z,11.70
2022-11-14T15:01:05.261Z,11.70
2022-11-14T15:03:43.288Z,11.60
2022-11-14T15:06:33.045Z,11.50
2022-11-14T15:09:24.856Z,11.50
2022-11-14T15:11:55.681Z,11.40
2022-11-14T15:14:28.861Z,11.40
2022-11-14T15:16:56.393Z,11.30
2022-11-14T15:19:35.775Z,11.30
2022-11-14T15:22:05.347Z,11.30
2022-11-14T15:24:32.252Z,11.40
2022-11-14T15:27:03.021Z,11.50
2022-11-14T15:29:32.145Z,11.50
2022-11-14T15:32:04.395Z,11.50
2022-11-14T15:34:33.479Z,11.50
2022-11-14T15:37:16.397Z,11.50
2022-11-14T15:39:44.621Z,11.40
2022-11-14T15:42:26.528Z,11.30
2022-11-14T15:44:53.628Z,11.30
2022-11-14T15:47:22.198Z,11.20
2022-11-14T15:50:21.282Z,11.10
2022-11-14T15:52:49.284Z,11.00
2022-11-14T15:55:19.568Z,10.80
2022-11-14T15:57:52.040Z,10.70
2022-11-14T16:00:32.968Z,10.50
2022-11-14T16:02:59.668Z,10.30
2022-11-14T16:05:30.453Z,10.10
2022-11-14T16:07:57.682Z,9.90
2022-11-14T16:10:26.763Z,10.90
2022-11-14T16:12:53.643Z,9.80
2022-11-14T16:15:21.647Z,9.80
2022-11-14T16:17:50.121Z,9.80
2022-11-14T16:20:25.408Z,9.70
2022-11-14T16:23:01.539Z,9.70
2022-11-14T16:25:30.255Z,9.70
2022-11-14T16:27:57.000Z,9.60
2022-11-14T16:30:25.780Z,9.60
2022-11-14T16:32:52.875Z,9.40
2022-11-14T16:35:22.127Z,9.40
2022-11-14T16:37:49.711Z,9.30
2022-11-14T16:40:23.096Z,9.20
2022-11-14T16:42:50.325Z,9.20
2022-11-14T16:45:17.848Z,9.30
2022-11-14T16:47:44.650Z,9.00
2022-11-14T16:50:11.326Z,9.10
2022-11-14T16:52:41.870Z,9.00
2022-11-14T16:55:10.287Z,8.90
2022-11-14T16:57:37.210Z,9.00
2022-11-14T17:00:10.707Z,9.00
2022-11-14T17:02:37.880Z,9.00
2022-11-14T17:05:04.857Z,9.00
2022-11-14T17:07:33.484Z,9.00
2022-11-14T17:10:00.709Z,8.90
2022-11-14T17:12:28.416Z,8.90
2022-11-14T17:14:55.261Z,8.90
2022-11-14T17:17:22.126Z,8.80
2022-11-14T17:19:49.298Z,8.80
2022-11-14T17:22:17.375Z,8.80
2022-11-14T17:24:44.770Z,8.80
2022-11-14T17:27:12.938Z,8.70
2022-11-14T17:29:39.960Z,8.60
2022-11-14T17:32:06.898Z,8.50
2022-11-14T17:34:33.691Z,8.90
2022-11-14T17:37:00.430Z,8.40
2022-11-14T17:39:27.212Z,8.30
2022-11-14T17:41:53.980Z,8.30
2022-11-14T17:44:20.635Z,8.20
2022-11-14T17:46:48.246Z,8.20
2022-11-14T17:49:14.905Z,8.00
2022-11-14T17:51:41.612Z,7.80
2022-11-14T17:54:08.965Z,7.60
2022-11-14T17:56:35.742Z,7.50
2022-11-14T17:59:03.143Z,7.30
2022-11-14T18:01:31.457Z,7.10
2022-11-14T18:04:01.746Z,7.00
2022-11-14T18:06:31.331Z,6.80
2022-11-14T18:09:04.706Z,7.30
2022-11-14T18:11:31.491Z,6.50
2022-11-14T18:13:58.669Z,6.40
2022-11-14T18:16:31.432Z,6.20
2022-11-14T18:19:06.827Z,6.10
2022-11-14T18:21:33.594Z,6.00
2022-11-14T18:24:00.524Z,6.00
2022-11-14T18:26:29.115Z,6.10
2022-11-14T18:28:57.225Z,6.30
2022-11-14T18:31:24.999Z,6.60
2022-11-14T18:33:51.882Z,6.90
2022-11-14T18:36:19.227Z,7.20
2022-11-14T18:38:46.297Z,7.50
2022-11-14T18:41:21.136Z,7.80
2022-11-14T18:43:48.631Z,7.90
2022-11-14T18:46:16.391Z,8.10
2022-11-14T18:48:46.496Z,8.20
2022-11-14T18:51:19.935Z,8.30
2022-11-14T18:53:48.058Z,8.40
2022-11-14T18:56:17.262Z,8.40
2022-11-14T18:58:44.487Z,8.40
2022-11-14T19:01:21.955Z,8.50
2022-11-14T19:03:48.842Z,8.30
2022-11-14T19:06:15.911Z,8.20
2022-11-14T19:08:44.695Z,8.00
2022-11-14T19:11:32.823Z,7.80
2022-11-14T19:14:04.654Z,7.70
2022-11-14T19:16:32.305Z,7.50
2022-11-14T19:19:00.404Z,7.40
2022-11-14T19:21:29.452Z,7.30
2022-11-14T19:23:58.874Z,7.10
2022-11-14T19:26:26.964Z,7.10
2022-11-14T19:28:54.409Z,7.00
2022-11-14T19:31:22.235Z,7.00
2022-11-14T19:33:49.999Z,6.90
2022-11-14T19:36:52.734Z,6.90
2022-11-14T19:39:09.591Z,6.80
2022-11-14T19:41:36.420Z,6.80
2022-11-14T19:44:03.243Z,6.80
2022-11-14T19:46:30.225Z,6.70
2022-11-14T19:49:01.202Z,6.70
2022-11-14T19:51:29.010Z,6.70
2022-11-14T19:53:59.374Z,6.70
2022-11-14T19:56:26.357Z,6.70
2022-11-14T19:58:56.191Z,6.70
2022-11-14T20:01:27.670Z,6.70
2022-11-14T20:03:56.834Z,6.70
2022-11-14T20:06:35.350Z,6.60
2022-11-14T20:09:06.041Z,6.50
2022-11-14T20:11:32.897Z,6.40
2022-11-14T20:14:01.197Z,6.40
2022-11-14T20:16:31.231Z,6.30
2022-11-14T20:19:00.205Z,6.20
2022-11-14T20:21:29.419Z,6.20
2022-11-14T20:23:56.406Z,6.10
2022-11-14T20:26:23.515Z,6.00
2022-11-14T20:28:52.688Z,6.00
2022-11-14T20:31:25.878Z,5.90
2022-11-14T20:33:53.820Z,5.80
2022-11-14T20:36:24.067Z,5.80
2022-11-14T20:38:52.035Z,5.80
2022-11-14T20:41:19.991Z,5.80
2022-11-14T20:43:47.044Z,5.80
2022-11-14T20:46:24.014Z,5.80
2022-11-14T20:48:51.297Z,5.90
2022-11-14T20:51:23.007Z,5.90
2022-11-14T20:53:51.948Z,6.00
2022-11-14T20:56:19.350Z,6.00
2022-11-14T20:58:47.922Z,5.90
2022-11-14T21:01:15.470Z,5.90
2022-11-14T21:03:42.636Z,5.80
2022-11-14T21:06:11.838Z,5.70
2022-11-14T21:08:39.645Z,5.60
2022-11-14T21:11:13.117Z,5.60
2022-11-14T21:13:56.254Z,5.50
2022-11-14T21:16:41.564Z,5.40
2022-11-14T21:19:08.322Z,5.30
2022-11-14T21:21:37.450Z,5.20
2022-11-14T21:24:05.044Z,5.10
2022-11-14T21:26:36.174Z,5.00
2022-11-14T21:29:07.214Z,5.00
2022-11-14T21:31:36.683Z,4.90
2022-11-14T21:34:05.805Z,4.90
2022-11-14T21:36:48.189Z,4.80
2022-11-14T21:39:16.812Z,4.80
2022-11-14T21:41:45.759Z,4.70
2022-11-14T21:44:14.549Z,4.60
2022-11-14T21:46:42.108Z,4.60
2022-11-14T21:49:09.409Z,4.50
2022-11-14T21:51:36.263Z,4.50
2022-11-14T21:54:03.186Z,4.50
2022-11-14T21:56:34.608Z,4.50
2022-11-14T21:59:12.613Z,4.50
2022-11-14T22:02:03.961Z,4.60
2022-11-14T22:04:31.661Z,4.60
2022-11-14T22:06:59.452Z,4.50
2022-11-14T22:09:28.236Z,4.50
2022-11-14T22:11:55.430Z,4.50
2022-11-14T22:14:22.260Z,4.50
2022-11-14T22:16:49.168Z,4.50
2022-11-14T22:19:16.053Z,4.40
2022-11-14T22:21:42.775Z,4.40
2022-11-14T22:24:09.451Z,4.30
2022-11-14T22:26:39.868Z,4.30
2022-11-14T22:29:07.782Z,4.40
2022-11-14T22:31:35.212Z,4.50
2022-11-14T22:34:02.346Z,4.60
2022-11-14T22:36:29.098Z,4.60
2022-11-14T22:38:57.222Z,4.70
2022-11-14T22:41:32.322Z,4.70
2022-11-14T22:44:00.291Z,4.80
2022-11-14T22:46:27.680Z,4.80
2022-11-14T22:48:55.181Z,4.80
2022-11-14T22:51:25.005Z,4.80
2022-11-14T22:53:57.079Z,4.90
2022-11-14T22:56:27.346Z,4.90
2022-11-14T22:58:54.764Z,4.80
2022-11-14T23:01:24.707Z,4.90
2022-11-14T23:03:57.008Z,4.90
2022-11-14T23:06:24.207Z,4.90
2022-11-14T23:08:51.244Z,5.00
2022-11-14T23:11:23.644Z,5.00
2022-11-14T23:13:53.183Z,5.10
2022-11-14T23:16:22.157Z,5.10
2022-11-14T23:18:49.509Z,5.10
2022-11-14T23:21:19.895Z,5.10
2022-11-14T23:23:46.875Z,5.10
2022-11-14T23:26:16.133Z,5.10
2022-11-14T23:28:43.599Z,5.10
2022-11-14T23:31:11.335Z,5.00
2022-11-14T23:33:38.758Z,5.00
2022-11-14T23:36:05.588Z,4.90
2022-11-14T23:38:32.350Z,4.80
2022-11-14T23:41:01.204Z,4.80
2022-11-14T23:43:30.110Z,4.80
2022-11-14T23:45:58.042Z,4.70
2022-11-14T23:48:24.933Z,4.60
2022-11-14T23:50:53.632Z,4.60
2022-11-14T23:53:20.808Z,4.50
2022-11-14T23:55:58.466Z,4.50
2022-11-14T23:58:26.847Z,4.40
